NCAR-RAP Real-Time Weather Data

Output produced by METARs form (23 June 2018  19:27 UTC)
found at http://weather.rap.ucar.edu/surface/
 
RJOY 231000Z 05003KT 9999 FEW008 SCT020 BKN025 21/19 Q1005
RJOY 230900Z VRB02KT 9999 FEW008 SCT020 BKN050 22/19 Q1005
RJOY 230800Z 04005KT 010V070 9999 FEW008 SCT015 BKN060 22/19 Q1004
RJOY 230700Z VRB02KT 7000 -SHRA FEW005 SCT010 BKN020 21/20 Q1004
RJOY 230638Z 29006KT 4000 -SHRA BR FEW005 SCT010 BKN020 21/20 Q1004 RMK 1ST005 3ST010 5CU020 A2966
RJOY 230600Z 03003KT 340V130 7000 -SHRA FEW005 SCT030 BKN080 21/19 Q1003
RJOY 230532Z 07010KT 6000 -SHRA BR FEW005 SCT030 BKN070 20/20 Q1003 RMK 1ST005 4CU030 6AC070 A2962 P/FR
RJOY 230500Z 35006KT 4000 SHRA BR FEW005 SCT010 BKN025 20/20 Q1004
RJOY 230418Z 30006KT 4000 SHRA BR FEW010 SCT025 BKN050 20/19 Q1004 RMK 1ST010 3CU025 6SC050 A2967
RJOY 230400Z 36003KT 290V060 6000 -SHRA BR FEW010 SCT025 BKN050 21/19 Q1004
RJOY 230327Z VRB02KT 5000 -SHRA BR FEW008 SCT025 BKN060 20/19 Q1004 RMK 1ST008 3CU025 6SC060 A2965
RJOY 230310Z 14005KT 110V230 4000 SHRA BR FEW020 SCT045 BKN060 20/18 Q1004 RMK 1CU020 3SC045 7SC060 A2966
RJOY 230300Z 11004KT 060V170 6000 -SHRA BR FEW020 BKN060 20/18 Q1004
RJOY 230200Z 10008KT 070V130 9999 VCSH FEW025 SCT050 BKN080 24/17 Q1004
RJOY 230100Z 14004KT 090V190 9999 FEW025 SCT060 BKN100 25/18 Q1003
RJOY 230000Z VRB02KT 9999 FEW030 SCT080 BKN100 25/17 Q1003
RJOY 222300Z VRB02KT 9999 FEW030 SCT080 BKN110 23/17 Q1004
RJOY 221000Z 27006KT 9999 FEW050 BKN/// 28/12 Q1008
RJOY 220900Z 26006KT 9999 FEW035 BKN/// 29/11 Q1007
RJOY 220800Z VRB05KT 9999 FEW035 BKN/// 30/11 Q1007
RJOY 220700Z 27006KT 180V320 9999 FEW035 BKN/// 31/11 Q1007
RJOY 220600Z 29005KT 250V060 9999 FEW030 BKN/// 30/11 Q1007
RJOY 220500Z 26005KT 180V310 9999 FEW030 BKN/// 30/13 Q1008
RJOY 220400Z VRB03KT 9999 FEW030 BKN/// 29/15 Q1008
RJOY 220300Z 28006KT 230V320 9999 FEW030 BKN/// 28/17 Q1009
RJOY 220200Z VRB03KT 9999 FEW030 BKN/// 27/18 Q1010
RJOY 220100Z VRB02KT 9999 FEW030 BKN/// 26/19 Q1010
RJOY 220000Z VRB02KT 9999 FEW025 BKN/// 25/19 Q1010
RJOY 212300Z VRB02KT 9999 FEW020 BKN/// 23/20 Q1010
RJOY 211000Z 26006KT 9999 FEW025 BKN/// 24/17 Q1006
RJOY 210900Z 28010KT 9999 FEW030 BKN/// 25/18 Q1005
RJOY 210800Z 25005KT 180V280 9999 FEW030 BKN/// 26/18 Q1004